Terminal Aerodrome Forecast
Issued by NWS

Home | Current Version | Previous Version | Text Only | Print | Product List | Glossary On
Versions: 1 2 3 4 5 6 7 8 9 10 11 12 13 14 15 16 17 18 19 20 21 22 23 24 25 26
000
FTUS46 KPDT 211738
TAFYKM
TAF
KYKM 211738Z 2118/2218 VRB05KT 6SM -RA BR BKN025 OVC040
     FM212200 30008KT P6SM VCSH SCT030 BKN050
     FM220000 30012KT P6SM SCT050
     FM220500 28006KT P6SM FEW050=

USA.gov is the U.S. government's official web portal to all federal, state and local government web resources and services.